sensor_id;sensor_type;location;lat;lon;timestamp;temperature;humidity
47765;DHT22;33529;49.242;8.670;2023-08-08T00:01:03;13.60;99.90
47765;DHT22;33529;49.242;8.670;2023-08-08T00:03:30;13.60;99.90
47765;DHT22;33529;49.242;8.670;2023-08-08T00:05:56;13.50;99.90
47765;DHT22;33529;49.242;8.670;2023-08-08T00:08:23;13.60;99.90
47765;DHT22;33529;49.242;8.670;2023-08-08T00:10:50;13.60;99.90
47765;DHT22;33529;49.242;8.670;2023-08-08T00:13:17;13.60;99.90
47765;DHT22;33529;49.242;8.670;2023-08-08T00:15:44;13.60;99.90
47765;DHT22;33529;49.242;8.670;2023-08-08T00:18:11;13.60;99.90
47765;DHT22;33529;49.242;8.670;2023-08-08T00:20:37;13.60;99.90
47765;DHT22;33529;49.242;8.670;2023-08-08T00:23:04;13.60;99.90
47765;DHT22;33529;49.242;8.670;2023-08-08T00:25:31;13.60;99.90
47765;DHT22;33529;49.242;8.670;2023-08-08T00:27:58;13.60;99.90
47765;DHT22;33529;49.242;8.670;2023-08-08T00:30:25;13.60;99.90
47765;DHT22;33529;49.242;8.670;2023-08-08T00:32:52;13.60;99.90
47765;DHT22;33529;49.242;8.670;2023-08-08T00:35:19;13.60;99.90
47765;DHT22;33529;49.242;8.670;2023-08-08T00:37:46;13.60;99.90
47765;DHT22;33529;49.242;8.670;2023-08-08T00:40:13;13.60;99.90
47765;DHT22;33529;49.242;8.670;2023-08-08T00:42:39;13.70;99.90
47765;DHT22;33529;49.242;8.670;2023-08-08T00:45:07;13.70;99.90
47765;DHT22;33529;49.242;8.670;2023-08-08T00:47:34;13.80;99.90
47765;DHT22;33529;49.242;8.670;2023-08-08T00:50:02;13.80;99.90
47765;DHT22;33529;49.242;8.670;2023-08-08T00:52:30;13.80;99.90
47765;DHT22;33529;49.242;8.670;2023-08-08T00:54:57;13.80;99.90
47765;DHT22;33529;49.242;8.670;2023-08-08T00:57:25;13.80;99.90
47765;DHT22;33529;49.242;8.670;2023-08-08T00:59:52;13.90;99.90
47765;DHT22;33529;49.242;8.670;2023-08-08T01:02:20;13.90;99.90
47765;DHT22;33529;49.242;8.670;2023-08-08T01:04:47;13.90;99.90
47765;DHT22;33529;49.242;8.670;2023-08-08T01:10:10;13.90;99.90
47765;DHT22;33529;49.242;8.670;2023-08-08T01:12:42;13.80;99.90
47765;DHT22;33529;49.242;8.670;2023-08-08T01:15:11;13.80;99.90
47765;DHT22;33529;49.242;8.670;2023-08-08T01:17:41;13.80;99.90
47765;DHT22;33529;49.242;8.670;2023-08-08T01:20:09;13.80;99.90
47765;DHT22;33529;49.242;8.670;2023-08-08T01:22:49;13.70;99.90
47765;DHT22;33529;49.242;8.670;2023-08-08T01:25:17;13.60;99.90
47765;DHT22;33529;49.242;8.670;2023-08-08T01:27:45;13.60;99.90
47765;DHT22;33529;49.242;8.670;2023-08-08T01:30:12;13.50;99.90
47765;DHT22;33529;49.242;8.670;2023-08-08T01:32:39;13.50;99.90
47765;DHT22;33529;49.242;8.670;2023-08-08T01:35:06;13.50;99.90
47765;DHT22;33529;49.242;8.670;2023-08-08T01:37:44;13.50;99.90
47765;DHT22;33529;49.242;8.670;2023-08-08T01:40:16;13.40;99.90
47765;DHT22;33529;49.242;8.670;2023-08-08T01:42:48;13.40;99.90
47765;DHT22;33529;49.242;8.670;2023-08-08T01:45:15;13.30;99.90
47765;DHT22;33529;49.242;8.670;2023-08-08T01:47:43;13.30;99.90
47765;DHT22;33529;49.242;8.670;2023-08-08T01:50:09;13.30;99.90
47765;DHT22;33529;49.242;8.670;2023-08-08T01:52:36;13.30;99.90
47765;DHT22;33529;49.242;8.670;2023-08-08T01:55:04;13.30;99.90
47765;DHT22;33529;49.242;8.670;2023-08-08T01:57:31;13.30;99.90
47765;DHT22;33529;49.242;8.670;2023-08-08T01:59:58;13.20;99.90
47765;DHT22;33529;49.242;8.670;2023-08-08T02:02:25;13.30;99.90
47765;DHT22;33529;49.242;8.670;2023-08-08T02:04:53;13.30;99.90
47765;DHT22;33529;49.242;8.670;2023-08-08T02:07:20;13.30;99.90
47765;DHT22;33529;49.242;8.670;2023-08-08T02:09:46;13.20;99.90
47765;DHT22;33529;49.242;8.670;2023-08-08T02:12:13;13.20;99.90
47765;DHT22;33529;49.242;8.670;2023-08-08T02:14:40;13.20;99.90
47765;DHT22;33529;49.242;8.670;2023-08-08T02:17:07;13.10;99.90
47765;DHT22;33529;49.242;8.670;2023-08-08T02:19:34;13.10;99.90
47765;DHT22;33529;49.242;8.670;2023-08-08T02:22:01;13.10;99.90
47765;DHT22;33529;49.242;8.670;2023-08-08T02:24:28;13.10;99.90
47765;DHT22;33529;49.242;8.670;2023-08-08T02:26:55;13.00;99.90
47765;DHT22;33529;49.242;8.670;2023-08-08T02:29:21;12.90;99.90
47765;DHT22;33529;49.242;8.670;2023-08-08T02:31:48;12.90;99.90
47765;DHT22;33529;49.242;8.670;2023-08-08T02:34:17;12.80;99.90
47765;DHT22;33529;49.242;8.670;2023-08-08T02:36:43;12.80;99.90
47765;DHT22;33529;49.242;8.670;2023-08-08T02:39:11;12.80;99.90
47765;DHT22;33529;49.242;8.670;2023-08-08T02:41:38;12.80;99.90
47765;DHT22;33529;49.242;8.670;2023-08-08T02:44:07;12.80;99.90
47765;DHT22;33529;49.242;8.670;2023-08-08T02:46:33;12.70;99.90
47765;DHT22;33529;49.242;8.670;2023-08-08T02:49:00;12.70;99.90
47765;DHT22;33529;49.242;8.670;2023-08-08T02:51:28;12.60;99.90
47765;DHT22;33529;49.242;8.670;2023-08-08T02:53:54;12.60;99.90
47765;DHT22;33529;49.242;8.670;2023-08-08T02:56:22;12.60;99.90
47765;DHT22;33529;49.242;8.670;2023-08-08T02:58:51;12.60;99.90
47765;DHT22;33529;49.242;8.670;2023-08-08T03:01:19;12.50;99.90
47765;DHT22;33529;49.242;8.670;2023-08-08T03:03:47;12.50;99.90
47765;DHT22;33529;49.242;8.670;2023-08-08T03:06:17;12.50;99.90
47765;DHT22;33529;49.242;8.670;2023-08-08T03:08:44;12.50;99.90
47765;DHT22;33529;49.242;8.670;2023-08-08T03:11:10;12.50;99.90
47765;DHT22;33529;49.242;8.670;2023-08-08T03:13:38;12.50;99.90
47765;DHT22;33529;49.242;8.670;2023-08-08T03:16:05;12.50;99.90
47765;DHT22;33529;49.242;8.670;2023-08-08T03:18:32;12.50;99.90
47765;DHT22;33529;49.242;8.670;2023-08-08T03:20:59;12.40;99.90
47765;DHT22;33529;49.242;8.670;2023-08-08T03:23:31;12.40;99.90
47765;DHT22;33529;49.242;8.670;2023-08-08T03:25:58;12.40;99.90
47765;DHT22;33529;49.242;8.670;2023-08-08T03:28:25;12.50;99.90
47765;DHT22;33529;49.242;8.670;2023-08-08T03:30:54;12.60;99.90
47765;DHT22;33529;49.242;8.670;2023-08-08T03:33:22;12.60;99.90
47765;DHT22;33529;49.242;8.670;2023-08-08T03:35:48;12.70;99.90
47765;DHT22;33529;49.242;8.670;2023-08-08T03:38:16;12.80;99.90
47765;DHT22;33529;49.242;8.670;2023-08-08T03:40:43;12.70;99.90
47765;DHT22;33529;49.242;8.670;2023-08-08T03:43:11;12.80;99.90
47765;DHT22;33529;49.242;8.670;2023-08-08T03:45:38;12.80;99.90
47765;DHT22;33529;49.242;8.670;2023-08-08T03:48:05;12.80;99.90
47765;DHT22;33529;49.242;8.670;2023-08-08T03:50:32;12.90;99.90
47765;DHT22;33529;49.242;8.670;2023-08-08T03:53:02;12.90;99.90
47765;DHT22;33529;49.242;8.670;2023-08-08T03:55:28;12.80;99.90
47765;DHT22;33529;49.242;8.670;2023-08-08T03:57:56;12.70;99.90
47765;DHT22;33529;49.242;8.670;2023-08-08T04:00:23;12.70;99.90
47765;DHT22;33529;49.242;8.670;2023-08-08T04:02:50;12.70;99.90
47765;DHT22;33529;49.242;8.670;2023-08-08T04:05:17;12.60;99.90
47765;DHT22;33529;49.242;8.670;2023-08-08T04:07:45;12.50;99.90
47765;DHT22;33529;49.242;8.670;2023-08-08T04:10:15;12.60;99.90
47765;DHT22;33529;49.242;8.670;2023-08-08T04:12:42;12.50;99.90
47765;DHT22;33529;49.242;8.670;2023-08-08T04:15:09;12.50;99.90
47765;DHT22;33529;49.242;8.670;2023-08-08T04:17:36;12.50;99.90
47765;DHT22;33529;49.242;8.670;2023-08-08T04:20:04;12.50;99.90
47765;DHT22;33529;49.242;8.670;2023-08-08T04:22:32;12.40;99.90
47765;DHT22;33529;49.242;8.670;2023-08-08T04:24:59;12.50;99.90
47765;DHT22;33529;49.242;8.670;2023-08-08T04:27:26;12.40;99.90
47765;DHT22;33529;49.242;8.670;2023-08-08T04:29:52;12.40;99.90
47765;DHT22;33529;49.242;8.670;2023-08-08T04:32:19;12.40;99.90
47765;DHT22;33529;49.242;8.670;2023-08-08T04:34:46;12.30;99.90
47765;DHT22;33529;49.242;8.670;2023-08-08T04:37:13;12.30;99.90
47765;DHT22;33529;49.242;8.670;2023-08-08T04:39:40;12.40;99.90
47765;DHT22;33529;49.242;8.670;2023-08-08T04:42:06;12.40;99.90
47765;DHT22;33529;49.242;8.670;2023-08-08T04:44:34;12.40;99.90
47765;DHT22;33529;49.242;8.670;2023-08-08T04:47:01;12.40;99.90
47765;DHT22;33529;49.242;8.670;2023-08-08T04:49:28;12.40;99.90
47765;DHT22;33529;49.242;8.670;2023-08-08T04:51:55;12.40;99.90
47765;DHT22;33529;49.242;8.670;2023-08-08T04:54:22;12.50;99.90
47765;DHT22;33529;49.242;8.670;2023-08-08T04:56:49;12.50;99.90
47765;DHT22;33529;49.242;8.670;2023-08-08T04:59:16;12.50;99.90
47765;DHT22;33529;49.242;8.670;2023-08-08T05:01:42;12.50;99.90
47765;DHT22;33529;49.242;8.670;2023-08-08T05:04:09;12.50;99.90
47765;DHT22;33529;49.242;8.670;2023-08-08T05:06:36;12.60;99.90
47765;DHT22;33529;49.242;8.670;2023-08-08T05:09:03;12.60;99.90
47765;DHT22;33529;49.242;8.670;2023-08-08T05:11:30;12.70;99.90
47765;DHT22;33529;49.242;8.670;2023-08-08T05:13:57;12.80;99.90
47765;DHT22;33529;49.242;8.670;2023-08-08T05:16:24;12.90;99.90
47765;DHT22;33529;49.242;8.670;2023-08-08T05:18:51;13.00;99.90
47765;DHT22;33529;49.242;8.670;2023-08-08T05:21:19;13.00;99.90
47765;DHT22;33529;49.242;8.670;2023-08-08T05:23:46;13.10;99.90
47765;DHT22;33529;49.242;8.670;2023-08-08T05:26:14;13.10;99.90
47765;DHT22;33529;49.242;8.670;2023-08-08T05:28:41;13.20;99.90
47765;DHT22;33529;49.242;8.670;2023-08-08T05:31:08;13.40;99.90
47765;DHT22;33529;49.242;8.670;2023-08-08T05:33:35;13.40;99.90
47765;DHT22;33529;49.242;8.670;2023-08-08T05:36:03;13.60;99.90
47765;DHT22;33529;49.242;8.670;2023-08-08T05:38:30;13.70;99.90
47765;DHT22;33529;49.242;8.670;2023-08-08T05:40:56;13.80;99.90
47765;DHT22;33529;49.242;8.670;2023-08-08T05:43:23;13.90;99.90
47765;DHT22;33529;49.242;8.670;2023-08-08T05:45:51;14.00;99.90
47765;DHT22;33529;49.242;8.670;2023-08-08T05:48:18;14.10;99.90
47765;DHT22;33529;49.242;8.670;2023-08-08T05:50:45;14.30;99.90
47765;DHT22;33529;49.242;8.670;2023-08-08T05:53:12;14.50;99.90
47765;DHT22;33529;49.242;8.670;2023-08-08T05:55:41;14.60;99.90
47765;DHT22;33529;49.242;8.670;2023-08-08T05:58:09;14.80;99.90
47765;DHT22;33529;49.242;8.670;2023-08-08T06:00:36;15.00;99.90
47765;DHT22;33529;49.242;8.670;2023-08-08T06:03:03;15.10;99.90
47765;DHT22;33529;49.242;8.670;2023-08-08T06:05:30;15.20;99.90
47765;DHT22;33529;49.242;8.670;2023-08-08T06:07:57;15.40;99.90
47765;DHT22;33529;49.242;8.670;2023-08-08T06:10:24;15.40;99.90
47765;DHT22;33529;49.242;8.670;2023-08-08T06:12:51;15.40;99.90
47765;DHT22;33529;49.242;8.670;2023-08-08T06:15:18;15.50;99.90
47765;DHT22;33529;49.242;8.670;2023-08-08T06:17:45;15.60;99.90
47765;DHT22;33529;49.242;8.670;2023-08-08T06:20:13;15.70;99.90
47765;DHT22;33529;49.242;8.670;2023-08-08T06:22:41;15.70;99.90
47765;DHT22;33529;49.242;8.670;2023-08-08T06:25:08;15.90;99.90
47765;DHT22;33529;49.242;8.670;2023-08-08T06:27:35;15.90;99.90
47765;DHT22;33529;49.242;8.670;2023-08-08T06:30:03;16.00;99.90
47765;DHT22;33529;49.242;8.670;2023-08-08T06:32:30;16.10;99.90
47765;DHT22;33529;49.242;8.670;2023-08-08T06:34:57;16.10;99.90
47765;DHT22;33529;49.242;8.670;2023-08-08T06:37:24;16.10;99.90
47765;DHT22;33529;49.242;8.670;2023-08-08T06:39:51;16.30;99.90
47765;DHT22;33529;49.242;8.670;2023-08-08T06:42:18;16.50;99.90
47765;DHT22;33529;49.242;8.670;2023-08-08T06:44:53;16.70;99.90
47765;DHT22;33529;49.242;8.670;2023-08-08T06:47:20;16.80;99.90
47765;DHT22;33529;49.242;8.670;2023-08-08T06:49:46;16.80;99.90
47765;DHT22;33529;49.242;8.670;2023-08-08T06:52:13;17.00;99.90
47765;DHT22;33529;49.242;8.670;2023-08-08T06:54:40;17.10;99.90
47765;DHT22;33529;49.242;8.670;2023-08-08T06:57:07;17.30;99.90
47765;DHT22;33529;49.242;8.670;2023-08-08T06:59:34;17.40;99.90
47765;DHT22;33529;49.242;8.670;2023-08-08T07:02:01;17.50;99.90
47765;DHT22;33529;49.242;8.670;2023-08-08T07:04:27;17.60;99.90
47765;DHT22;33529;49.242;8.670;2023-08-08T07:06:54;17.60;99.90
47765;DHT22;33529;49.242;8.670;2023-08-08T07:09:21;17.80;99.90
47765;DHT22;33529;49.242;8.670;2023-08-08T07:11:48;17.90;99.90
47765;DHT22;33529;49.242;8.670;2023-08-08T07:14:15;18.10;99.90
47765;DHT22;33529;49.242;8.670;2023-08-08T07:16:42;18.20;99.90
47765;DHT22;33529;49.242;8.670;2023-08-08T07:19:08;18.20;99.90
47765;DHT22;33529;49.242;8.670;2023-08-08T07:21:35;18.40;99.90
47765;DHT22;33529;49.242;8.670;2023-08-08T07:24:03;18.50;99.90
47765;DHT22;33529;49.242;8.670;2023-08-08T07:26:30;18.50;99.90
47765;DHT22;33529;49.242;8.670;2023-08-08T07:28:57;18.60;99.90
47765;DHT22;33529;49.242;8.670;2023-08-08T07:31:24;18.60;99.90
47765;DHT22;33529;49.242;8.670;2023-08-08T07:33:51;18.80;99.90
47765;DHT22;33529;49.242;8.670;2023-08-08T07:36:17;18.80;99.90
47765;DHT22;33529;49.242;8.670;2023-08-08T07:38:44;18.80;99.90
47765;DHT22;33529;49.242;8.670;2023-08-08T07:41:11;18.90;99.90
47765;DHT22;33529;49.242;8.670;2023-08-08T07:43:38;18.90;99.90
47765;DHT22;33529;49.242;8.670;2023-08-08T07:46:04;18.90;99.90
47765;DHT22;33529;49.242;8.670;2023-08-08T07:48:31;18.90;99.90
47765;DHT22;33529;49.242;8.670;2023-08-08T07:50:58;19.00;99.90
47765;DHT22;33529;49.242;8.670;2023-08-08T07:53:25;19.10;99.90
47765;DHT22;33529;49.242;8.670;2023-08-08T07:55:52;19.00;99.90
47765;DHT22;33529;49.242;8.670;2023-08-08T07:58:18;19.00;99.90
47765;DHT22;33529;49.242;8.670;2023-08-08T08:00:46;19.10;99.90
47765;DHT22;33529;49.242;8.670;2023-08-08T08:03:13;19.20;99.90
47765;DHT22;33529;49.242;8.670;2023-08-08T08:05:40;18.90;99.90
47765;DHT22;33529;49.242;8.670;2023-08-08T08:08:06;18.70;99.90
47765;DHT22;33529;49.242;8.670;2023-08-08T08:10:33;18.80;99.90
47765;DHT22;33529;49.242;8.670;2023-08-08T08:13:00;19.00;99.90
47765;DHT22;33529;49.242;8.670;2023-08-08T08:15:28;19.20;99.90
47765;DHT22;33529;49.242;8.670;2023-08-08T08:17:55;19.40;99.90
47765;DHT22;33529;49.242;8.670;2023-08-08T08:20:22;19.40;99.90
47765;DHT22;33529;49.242;8.670;2023-08-08T08:22:49;19.30;99.90
47765;DHT22;33529;49.242;8.670;2023-08-08T08:25:16;19.20;99.90
47765;DHT22;33529;49.242;8.670;2023-08-08T08:27:43;19.20;99.90
47765;DHT22;33529;49.242;8.670;2023-08-08T08:30:10;19.20;99.90
47765;DHT22;33529;49.242;8.670;2023-08-08T08:32:39;19.10;99.90
47765;DHT22;33529;49.242;8.670;2023-08-08T08:35:07;19.20;99.90
47765;DHT22;33529;49.242;8.670;2023-08-08T08:37:34;19.30;99.90
47765;DHT22;33529;49.242;8.670;2023-08-08T08:40:01;19.40;99.90
47765;DHT22;33529;49.242;8.670;2023-08-08T08:42:28;19.40;99.90
47765;DHT22;33529;49.242;8.670;2023-08-08T08:44:58;19.30;99.90
47765;DHT22;33529;49.242;8.670;2023-08-08T08:47:26;19.40;99.90
47765;DHT22;33529;49.242;8.670;2023-08-08T08:49:57;19.40;99.90
47765;DHT22;33529;49.242;8.670;2023-08-08T08:52:24;19.50;99.90
47765;DHT22;33529;49.242;8.670;2023-08-08T08:54:51;19.60;99.90
47765;DHT22;33529;49.242;8.670;2023-08-08T08:57:21;19.70;99.90
47765;DHT22;33529;49.242;8.670;2023-08-08T08:59:53;19.70;99.90
47765;DHT22;33529;49.242;8.670;2023-08-08T09:02:20;19.60;99.90
47765;DHT22;33529;49.242;8.670;2023-08-08T09:04:48;19.30;99.90
47765;DHT22;33529;49.242;8.670;2023-08-08T09:07:16;19.10;99.90
47765;DHT22;33529;49.242;8.670;2023-08-08T09:09:45;19.10;99.90
47765;DHT22;33529;49.242;8.670;2023-08-08T09:12:12;19.20;99.90
47765;DHT22;33529;49.242;8.670;2023-08-08T09:14:42;19.30;99.90
47765;DHT22;33529;49.242;8.670;2023-08-08T09:17:13;19.50;99.90
47765;DHT22;33529;49.242;8.670;2023-08-08T09:19:44;19.50;99.90
47765;DHT22;33529;49.242;8.670;2023-08-08T09:22:12;19.80;99.90
47765;DHT22;33529;49.242;8.670;2023-08-08T09:24:40;20.00;99.90
47765;DHT22;33529;49.242;8.670;2023-08-08T09:27:08;20.00;99.90
47765;DHT22;33529;49.242;8.670;2023-08-08T09:29:34;20.00;99.90
47765;DHT22;33529;49.242;8.670;2023-08-08T09:32:07;20.10;99.90
47765;DHT22;33529;49.242;8.670;2023-08-08T09:34:34;20.30;99.90
47765;DHT22;33529;49.242;8.670;2023-08-08T09:37:01;20.30;99.90
47765;DHT22;33529;49.242;8.670;2023-08-08T09:39:32;20.00;99.90
47765;DHT22;33529;49.242;8.670;2023-08-08T09:42:01;20.00;99.90
47765;DHT22;33529;49.242;8.670;2023-08-08T09:44:29;20.10;99.90
47765;DHT22;33529;49.242;8.670;2023-08-08T09:46:59;20.30;99.90
47765;DHT22;33529;49.242;8.670;2023-08-08T09:49:27;20.40;99.90
47765;DHT22;33529;49.242;8.670;2023-08-08T09:51:55;20.50;99.90
47765;DHT22;33529;49.242;8.670;2023-08-08T09:54:23;20.80;99.90
47765;DHT22;33529;49.242;8.670;2023-08-08T09:56:51;20.60;99.90
47765;DHT22;33529;49.242;8.670;2023-08-08T09:59:18;20.40;99.90
47765;DHT22;33529;49.242;8.670;2023-08-08T10:01:46;20.40;99.90
47765;DHT22;33529;49.242;8.670;2023-08-08T10:04:14;20.20;99.90
47765;DHT22;33529;49.242;8.670;2023-08-08T10:06:41;20.00;99.90
47765;DHT22;33529;49.242;8.670;2023-08-08T10:09:09;20.00;99.90
47765;DHT22;33529;49.242;8.670;2023-08-08T10:11:36;20.00;99.90
47765;DHT22;33529;49.242;8.670;2023-08-08T10:14:03;20.20;99.90
47765;DHT22;33529;49.242;8.670;2023-08-08T10:16:33;20.30;99.90
47765;DHT22;33529;49.242;8.670;2023-08-08T10:19:02;20.40;99.90
47765;DHT22;33529;49.242;8.670;2023-08-08T10:21:43;20.40;99.90
47765;DHT22;33529;49.242;8.670;2023-08-08T10:24:10;20.40;99.90
47765;DHT22;33529;49.242;8.670;2023-08-08T10:26:57;20.30;99.90
47765;DHT22;33529;49.242;8.670;2023-08-08T10:29:26;20.30;99.90
47765;DHT22;33529;49.242;8.670;2023-08-08T10:31:57;20.40;99.90
47765;DHT22;33529;49.242;8.670;2023-08-08T10:34:44;20.40;99.90
47765;DHT22;33529;49.242;8.670;2023-08-08T10:37:15;20.50;99.40
47765;DHT22;33529;49.242;8.670;2023-08-08T10:39:55;20.60;99.90
47765;DHT22;33529;49.242;8.670;2023-08-08T10:42:26;20.90;98.70
47765;DHT22;33529;49.242;8.670;2023-08-08T10:45:01;21.20;99.60
47765;DHT22;33529;49.242;8.670;2023-08-08T10:47:33;21.30;99.50
47765;DHT22;33529;49.242;8.670;2023-08-08T10:50:10;21.10;99.60
47765;DHT22;33529;49.242;8.670;2023-08-08T10:55:35;20.90;98.90
47765;DHT22;33529;49.242;8.670;2023-08-08T10:58:12;21.10;97.40
47765;DHT22;33529;49.242;8.670;2023-08-08T11:00:40;21.50;99.30
47765;DHT22;33529;49.242;8.670;2023-08-08T11:03:07;21.70;99.60
47765;DHT22;33529;49.242;8.670;2023-08-08T11:05:36;21.70;95.80
47765;DHT22;33529;49.242;8.670;2023-08-08T11:08:06;21.60;96.40
47765;DHT22;33529;49.242;8.670;2023-08-08T11:10:38;21.50;96.20
47765;DHT22;33529;49.242;8.670;2023-08-08T11:13:06;21.60;95.40
47765;DHT22;33529;49.242;8.670;2023-08-08T11:15:35;21.70;95.80
47765;DHT22;33529;49.242;8.670;2023-08-08T11:18:03;21.70;94.60
47765;DHT22;33529;49.242;8.670;2023-08-08T11:20:32;21.70;94.80
47765;DHT22;33529;49.242;8.670;2023-08-08T11:23:00;22.00;94.20
47765;DHT22;33529;49.242;8.670;2023-08-08T11:25:29;22.20;93.70
47765;DHT22;33529;49.242;8.670;2023-08-08T11:27:57;22.30;92.10
47765;DHT22;33529;49.242;8.670;2023-08-08T11:30:28;22.20;93.00
47765;DHT22;33529;49.242;8.670;2023-08-08T11:32:55;22.10;93.40
47765;DHT22;33529;49.242;8.670;2023-08-08T11:35:25;22.20;92.80
47765;DHT22;33529;49.242;8.670;2023-08-08T11:37:53;22.30;93.70
47765;DHT22;33529;49.242;8.670;2023-08-08T11:40:20;22.50;92.10
47765;DHT22;33529;49.242;8.670;2023-08-08T11:42:48;22.50;91.50
47765;DHT22;33529;49.242;8.670;2023-08-08T11:45:18;22.60;92.60
47765;DHT22;33529;49.242;8.670;2023-08-08T11:47:49;22.70;92.30
47765;DHT22;33529;49.242;8.670;2023-08-08T11:50:19;22.80;92.00
47765;DHT22;33529;49.242;8.670;2023-08-08T11:52:46;22.80;90.90
47765;DHT22;33529;49.242;8.670;2023-08-08T11:55:13;22.50;91.90
47765;DHT22;33529;49.242;8.670;2023-08-08T11:57:41;22.60;88.30
47765;DHT22;33529;49.242;8.670;2023-08-08T12:00:10;22.40;90.50
47765;DHT22;33529;49.242;8.670;2023-08-08T12:02:42;22.50;91.00
47765;DHT22;33529;49.242;8.670;2023-08-08T12:05:11;22.50;89.40
47765;DHT22;33529;49.242;8.670;2023-08-08T12:07:39;22.70;92.20
47765;DHT22;33529;49.242;8.670;2023-08-08T12:10:19;22.80;90.80
47765;DHT22;33529;49.242;8.670;2023-08-08T12:12:51;23.00;90.70
47765;DHT22;33529;49.242;8.670;2023-08-08T12:15:19;23.00;89.90
47765;DHT22;33529;49.242;8.670;2023-08-08T12:17:46;22.80;88.80
47765;DHT22;33529;49.242;8.670;2023-08-08T12:20:15;22.70;88.90
47765;DHT22;33529;49.242;8.670;2023-08-08T12:22:41;22.50;89.80
47765;DHT22;33529;49.242;8.670;2023-08-08T12:25:08;22.40;90.40
47765;DHT22;33529;49.242;8.670;2023-08-08T12:27:35;22.60;90.10
47765;DHT22;33529;49.242;8.670;2023-08-08T12:30:02;22.40;85.70
47765;DHT22;33529;49.242;8.670;2023-08-08T12:32:29;22.40;87.90
47765;DHT22;33529;49.242;8.670;2023-08-08T12:34:58;22.40;87.50
47765;DHT22;33529;49.242;8.670;2023-08-08T12:37:25;22.60;85.00
47765;DHT22;33529;49.242;8.670;2023-08-08T12:39:52;22.70;87.70
47765;DHT22;33529;49.242;8.670;2023-08-08T12:42:19;22.80;85.50
47765;DHT22;33529;49.242;8.670;2023-08-08T12:44:46;22.80;87.80
47765;DHT22;33529;49.242;8.670;2023-08-08T12:47:13;23.00;87.20
47765;DHT22;33529;49.242;8.670;2023-08-08T12:49:41;22.90;88.20
47765;DHT22;33529;49.242;8.670;2023-08-08T12:52:08;23.10;89.40
47765;DHT22;33529;49.242;8.670;2023-08-08T12:54:36;23.50;88.40
47765;DHT22;33529;49.242;8.670;2023-08-08T12:57:03;23.70;85.20
47765;DHT22;33529;49.242;8.670;2023-08-08T12:59:30;23.80;83.70
47765;DHT22;33529;49.242;8.670;2023-08-08T13:01:57;23.90;82.40
47765;DHT22;33529;49.242;8.670;2023-08-08T13:04:25;23.70;78.60
47765;DHT22;33529;49.242;8.670;2023-08-08T13:06:52;23.40;82.50
47765;DHT22;33529;49.242;8.670;2023-08-08T13:09:19;23.40;83.00
47765;DHT22;33529;49.242;8.670;2023-08-08T13:11:46;23.50;81.80
47765;DHT22;33529;49.242;8.670;2023-08-08T13:14:14;23.60;81.30
47765;DHT22;33529;49.242;8.670;2023-08-08T13:16:41;23.80;81.10
47765;DHT22;33529;49.242;8.670;2023-08-08T13:19:08;23.80;83.70
47765;DHT22;33529;49.242;8.670;2023-08-08T13:21:34;23.80;80.60
47765;DHT22;33529;49.242;8.670;2023-08-08T13:24:01;23.80;83.30
47765;DHT22;33529;49.242;8.670;2023-08-08T13:26:28;24.00;81.40
47765;DHT22;33529;49.242;8.670;2023-08-08T13:28:55;24.30;83.00
47765;DHT22;33529;49.242;8.670;2023-08-08T13:31:22;24.30;80.00
47765;DHT22;33529;49.242;8.670;2023-08-08T13:33:49;24.30;79.60
47765;DHT22;33529;49.242;8.670;2023-08-08T13:36:16;24.10;79.60
47765;DHT22;33529;49.242;8.670;2023-08-08T13:38:43;24.00;81.70
47765;DHT22;33529;49.242;8.670;2023-08-08T13:41:09;24.10;80.40
47765;DHT22;33529;49.242;8.670;2023-08-08T13:43:36;24.10;78.70
47765;DHT22;33529;49.242;8.670;2023-08-08T13:46:03;23.80;80.00
47765;DHT22;33529;49.242;8.670;2023-08-08T13:48:34;23.60;79.60
47765;DHT22;33529;49.242;8.670;2023-08-08T13:51:01;23.60;83.30
47765;DHT22;33529;49.242;8.670;2023-08-08T13:53:29;23.60;81.00
47765;DHT22;33529;49.242;8.670;2023-08-08T13:55:56;23.70;83.30
47765;DHT22;33529;49.242;8.670;2023-08-08T13:58:23;23.70;81.80
47765;DHT22;33529;49.242;8.670;2023-08-08T14:00:50;23.60;81.30
47765;DHT22;33529;49.242;8.670;2023-08-08T14:03:17;23.70;82.80
47765;DHT22;33529;49.242;8.670;2023-08-08T14:05:45;23.90;82.10
47765;DHT22;33529;49.242;8.670;2023-08-08T14:08:11;23.70;81.20
47765;DHT22;33529;49.242;8.670;2023-08-08T14:10:38;23.50;82.40
47765;DHT22;33529;49.242;8.670;2023-08-08T14:13:05;23.50;82.80
47765;DHT22;33529;49.242;8.670;2023-08-08T14:15:32;23.50;83.50
47765;DHT22;33529;49.242;8.670;2023-08-08T14:18:06;23.50;82.00
47765;DHT22;33529;49.242;8.670;2023-08-08T14:20:34;23.50;80.10
47765;DHT22;33529;49.242;8.670;2023-08-08T14:23:01;23.70;79.30
47765;DHT22;33529;49.242;8.670;2023-08-08T14:25:28;23.80;81.40
47765;DHT22;33529;49.242;8.670;2023-08-08T14:27:56;23.90;82.30
47765;DHT22;33529;49.242;8.670;2023-08-08T14:30:27;24.20;81.70
47765;DHT22;33529;49.242;8.670;2023-08-08T14:32:54;24.50;81.50
47765;DHT22;33529;49.242;8.670;2023-08-08T14:35:21;24.50;80.20
47765;DHT22;33529;49.242;8.670;2023-08-08T14:37:48;24.70;80.90
47765;DHT22;33529;49.242;8.670;2023-08-08T14:40:15;24.80;78.70
47765;DHT22;33529;49.242;8.670;2023-08-08T14:42:42;24.70;80.80
47765;DHT22;33529;49.242;8.670;2023-08-08T14:45:09;24.60;79.80
47765;DHT22;33529;49.242;8.670;2023-08-08T14:47:36;24.20;78.90
47765;DHT22;33529;49.242;8.670;2023-08-08T14:50:03;24.00;82.30
47765;DHT22;33529;49.242;8.670;2023-08-08T14:52:30;23.80;80.00
47765;DHT22;33529;49.242;8.670;2023-08-08T14:54:57;24.80;80.10
47765;DHT22;33529;49.242;8.670;2023-08-08T14:57:24;26.00;78.70
47765;DHT22;33529;49.242;8.670;2023-08-08T14:59:51;26.90;78.70
47765;DHT22;33529;49.242;8.670;2023-08-08T15:02:18;27.30;76.80
47765;DHT22;33529;49.242;8.670;2023-08-08T15:04:45;27.60;74.80
47765;DHT22;33529;49.242;8.670;2023-08-08T15:07:12;26.70;76.20
47765;DHT22;33529;49.242;8.670;2023-08-08T15:09:39;25.40;77.00
47765;DHT22;33529;49.242;8.670;2023-08-08T15:12:06;24.40;79.00
47765;DHT22;33529;49.242;8.670;2023-08-08T15:14:33;23.90;81.20
47765;DHT22;33529;49.242;8.670;2023-08-08T15:16:59;23.30;80.50
47765;DHT22;33529;49.242;8.670;2023-08-08T15:19:27;23.00;81.70
47765;DHT22;33529;49.242;8.670;2023-08-08T15:21:54;22.90;84.40
47765;DHT22;33529;49.242;8.670;2023-08-08T15:24:21;22.80;81.60
47765;DHT22;33529;49.242;8.670;2023-08-08T15:26:48;22.70;82.60
47765;DHT22;33529;49.242;8.670;2023-08-08T15:29:15;22.60;82.70
47765;DHT22;33529;49.242;8.670;2023-08-08T15:31:42;22.60;83.40
47765;DHT22;33529;49.242;8.670;2023-08-08T15:34:08;22.40;84.00
47765;DHT22;33529;49.242;8.670;2023-08-08T15:36:35;22.40;82.90
47765;DHT22;33529;49.242;8.670;2023-08-08T15:39:02;22.30;83.10